createdAt,value
2022-11-15T00:02:06.653Z,30.70
2022-11-15T00:04:53.242Z,33.10
2022-11-15T00:07:55.245Z,42.80
2022-11-15T00:10:42.794Z,33.83
2022-11-15T00:13:30.647Z,36.28
2022-11-15T00:16:19.040Z,34.95
2022-11-15T00:19:05.674Z,35.47
2022-11-15T00:21:52.120Z,33.88
2022-11-15T00:24:38.579Z,30.05
2022-11-15T00:27:25.381Z,32.58
2022-11-15T00:30:13.724Z,34.22
2022-11-15T00:33:05.347Z,33.72
2022-11-15T00:35:51.784Z,33.50
2022-11-15T00:38:39.869Z,38.17
2022-11-15T00:41:26.574Z,36.88
2022-11-15T00:44:13.338Z,31.50
2022-11-15T00:47:02.827Z,34.10
2022-11-15T00:49:58.145Z,33.22
2022-11-15T00:52:51.598Z,32.75
2022-11-15T00:55:47.744Z,35.15
2022-11-15T00:58:34.536Z,32.53
2022-11-15T01:01:21.396Z,30.88
2022-11-15T01:04:08.173Z,33.60
2022-11-15T01:06:56.492Z,30.05
2022-11-15T01:09:43.188Z,28.98
2022-11-15T01:12:29.814Z,36.25
2022-11-15T01:15:16.905Z,30.58
2022-11-15T01:18:03.509Z,32.05
2022-11-15T01:20:50.005Z,30.48
2022-11-15T01:23:39.309Z,32.00
2022-11-15T01:26:27.074Z,32.33
2022-11-15T01:29:13.848Z,31.88
2022-11-15T01:32:00.306Z,37.38
2022-11-15T01:34:48.145Z,31.30
2022-11-15T01:37:35.100Z,32.45
2022-11-15T01:40:24.357Z,31.73
2022-11-15T01:43:30.785Z,38.78
2022-11-15T01:46:36.346Z,35.03
2022-11-15T01:49:25.480Z,33.25
2022-11-15T01:52:15.849Z,36.58
2022-11-15T01:55:09.873Z,39.83
2022-11-15T01:58:04.082Z,35.10
2022-11-15T02:00:51.962Z,40.70
2022-11-15T02:03:44.522Z,42.97
2022-11-15T02:06:31.395Z,37.75
2022-11-15T02:09:19.163Z,37.25
2022-11-15T02:12:07.448Z,37.78
2022-11-15T02:14:57.066Z,33.22
2022-11-15T02:18:01.184Z,39.13
2022-11-15T02:21:12.307Z,37.75
2022-11-15T02:24:19.408Z,36.17
2022-11-15T02:27:56.299Z,38.28
2022-11-15T02:31:17.636Z,30.88
2022-11-15T02:34:28.538Z,34.13
2022-11-15T02:37:30.557Z,34.85
2022-11-15T02:40:29.757Z,34.80
2022-11-15T02:43:45.258Z,35.58
2022-11-15T02:46:57.055Z,32.97
2022-11-15T02:49:47.605Z,41.25
2022-11-15T02:52:33.963Z,38.83
2022-11-15T02:55:35.173Z,39.65
2022-11-15T02:58:41.084Z,40.40
2022-11-15T03:01:41.064Z,42.47
2022-11-15T03:04:40.787Z,45.15
2022-11-15T03:07:31.889Z,38.75
2022-11-15T03:10:26.397Z,44.63
2022-11-15T03:13:23.807Z,46.58
2022-11-15T03:16:22.636Z,44.90
2022-11-15T03:19:31.094Z,50.97
2022-11-15T03:22:28.540Z,44.85
2022-11-15T03:25:31.520Z,48.63
2022-11-15T03:28:23.756Z,46.85
2022-11-15T03:31:26.679Z,45.70
2022-11-15T03:34:23.017Z,44.08
2022-11-15T03:37:12.304Z,48.08
2022-11-15T03:39:59.156Z,49.97
2022-11-15T03:42:55.920Z,50.60
2022-11-15T03:45:48.835Z,48.00
2022-11-15T03:48:40.537Z,48.85
2022-11-15T03:51:28.739Z,48.45
2022-11-15T03:54:16.170Z,48.85
2022-11-15T03:57:02.739Z,42.42
2022-11-15T03:59:49.344Z,50.40
2022-11-15T04:02:36.350Z,48.85
2022-11-15T04:05:25.961Z,43.22
2022-11-15T04:08:21.316Z,43.67
2022-11-15T04:11:26.258Z,47.65
2022-11-15T04:14:17.871Z,44.95
2022-11-15T04:17:26.180Z,45.33
2022-11-15T04:20:34.426Z,42.65
2022-11-15T04:23:41.792Z,45.55
2022-11-15T04:26:28.451Z,46.42
2022-11-15T04:29:32.755Z,44.45
2022-11-15T04:32:19.600Z,47.15
2022-11-15T04:35:06.963Z,47.63
2022-11-15T04:37:54.107Z,51.88
2022-11-15T04:40:42.017Z,55.30
2022-11-15T04:43:28.886Z,48.08
2022-11-15T04:46:16.434Z,48.22
2022-11-15T04:49:03.473Z,47.88
2022-11-15T04:51:49.857Z,53.75
2022-11-15T04:54:36.271Z,49.38
2022-11-15T04:57:24.805Z,56.65
2022-11-15T05:00:20.838Z,56.97
2022-11-15T05:03:27.113Z,49.17
2022-11-15T05:06:40.592Z,52.00
2022-11-15T05:09:27.328Z,59.53
2022-11-15T05:12:14.000Z,55.15
2022-11-15T05:15:02.307Z,55.13
2022-11-15T05:17:48.936Z,62.40
2022-11-15T05:20:35.348Z,55.40
2022-11-15T05:23:22.074Z,51.80
2022-11-15T05:26:09.780Z,60.60
2022-11-15T05:28:56.560Z,61.60
2022-11-15T05:31:44.890Z,57.78
2022-11-15T05:34:31.671Z,60.38
2022-11-15T05:37:18.212Z,62.88
2022-11-15T05:40:05.733Z,73.20
2022-11-15T05:42:52.486Z,67.15
2022-11-15T05:45:39.608Z,72.63
2022-11-15T05:48:28.194Z,66.57
2022-11-15T05:51:19.011Z,71.32
2022-11-15T05:54:16.994Z,69.47
2022-11-15T05:57:18.474Z,73.38
2022-11-15T06:00:07.182Z,67.82
2022-11-15T06:02:53.767Z,81.78
2022-11-15T06:05:41.955Z,80.63
2022-11-15T06:08:29.194Z,76.97
2022-11-15T06:11:16.253Z,81.68
2022-11-15T06:14:03.040Z,83.68
2022-11-15T06:16:49.760Z,70.07
2022-11-15T06:19:36.066Z,89.88
2022-11-15T06:22:23.889Z,83.40
2022-11-15T06:25:10.612Z,81.35
2022-11-15T06:27:59.005Z,79.55
2022-11-15T06:30:50.450Z,79.78
2022-11-15T06:33:40.639Z,82.75
2022-11-15T06:36:26.883Z,91.30
2022-11-15T06:39:14.959Z,90.55
2022-11-15T06:42:01.790Z,90.00
2022-11-15T06:44:54.687Z,81.78
2022-11-15T06:47:49.965Z,85.80
2022-11-15T06:50:36.368Z,84.20
2022-11-15T06:53:23.330Z,78.97
2022-11-15T06:56:11.111Z,84.30
2022-11-15T06:58:57.905Z,87.30
2022-11-15T07:01:44.624Z,80.55
2022-11-15T07:04:31.104Z,74.38
2022-11-15T07:07:17.652Z,86.75
2022-11-15T07:10:05.110Z,78.00
2022-11-15T07:12:53.612Z,82.80
2022-11-15T07:15:40.428Z,83.45
2022-11-15T07:18:28.406Z,81.43
2022-11-15T07:21:15.126Z,76.15
2022-11-15T07:24:01.554Z,80.20
2022-11-15T07:26:48.318Z,84.47
2022-11-15T07:29:36.834Z,79.45
2022-11-15T07:32:23.779Z,86.57
2022-11-15T07:35:26.429Z,85.75
2022-11-15T07:38:13.708Z,91.70
2022-11-15T07:41:02.075Z,80.40
2022-11-15T07:43:48.648Z,83.50
2022-11-15T07:46:36.493Z,79.57
2022-11-15T07:49:23.415Z,82.00
2022-11-15T07:52:10.374Z,87.78
2022-11-15T07:54:56.786Z,78.63
2022-11-15T07:57:43.908Z,75.90
2022-11-15T08:00:30.415Z,76.63
2022-11-15T08:03:19.508Z,78.57
2022-11-15T08:06:07.190Z,67.65
2022-11-15T08:08:53.780Z,75.50
2022-11-15T08:11:40.456Z,80.15
2022-11-15T08:14:27.344Z,70.10
2022-11-15T08:17:14.035Z,67.05
2022-11-15T08:20:02.730Z,70.70
2022-11-15T08:22:49.411Z,75.25
2022-11-15T08:25:47.581Z,64.57
2022-11-15T08:28:34.931Z,61.85
2022-11-15T08:31:22.072Z,67.68
2022-11-15T08:34:09.554Z,63.45
2022-11-15T08:36:57.339Z,57.92
2022-11-15T08:39:44.715Z,58.53
2022-11-15T08:42:31.421Z,62.53
2022-11-15T08:45:17.870Z,55.20
2022-11-15T08:48:05.283Z,62.42
2022-11-15T08:50:56.455Z,54.78
2022-11-15T08:53:45.572Z,48.42
2022-11-15T08:56:32.564Z,54.22
2022-11-15T08:59:18.893Z,55.17
2022-11-15T09:02:05.985Z,52.08
2022-11-15T09:04:52.837Z,58.75
2022-11-15T09:07:39.340Z,43.15
2022-11-15T09:10:27.867Z,50.03
2022-11-15T09:13:23.410Z,47.00
2022-11-15T09:16:13.359Z,48.55
2022-11-15T09:19:00.291Z,43.50
2022-11-15T09:21:47.193Z,40.55
2022-11-15T09:24:33.891Z,48.72
2022-11-15T09:27:21.938Z,42.00
2022-11-15T09:30:09.697Z,40.35
2022-11-15T09:32:56.705Z,37.78
2022-11-15T09:35:43.342Z,41.92
2022-11-15T09:38:30.432Z,50.22
2022-11-15T09:41:45.989Z,41.85
2022-11-15T09:44:46.824Z,38.78
2022-11-15T09:47:48.259Z,34.70
2022-11-15T09:50:44.749Z,36.83
2022-11-15T09:53:16.083Z,38.67
2022-11-15T09:55:53.563Z,32.63
2022-11-15T09:58:29.327Z,37.40
2022-11-15T10:01:02.424Z,35.45
2022-11-15T10:03:44.458Z,48.30
2022-11-15T10:06:30.721Z,41.23
2022-11-15T10:09:04.243Z,38.80
2022-11-15T10:11:38.992Z,39.50
2022-11-15T10:14:14.708Z,35.17
2022-11-15T10:17:17.418Z,38.42
2022-11-15T10:19:54.979Z,36.67
2022-11-15T10:22:42.227Z,36.42
2022-11-15T10:25:22.536Z,29.33
2022-11-15T10:27:56.791Z,37.03
2022-11-15T10:30:33.717Z,30.17
2022-11-15T10:33:16.551Z,39.00
2022-11-15T10:35:44.629Z,39.75
2022-11-15T10:38:13.897Z,38.55
2022-11-15T10:40:47.035Z,34.95
2022-11-15T10:43:19.808Z,40.08
2022-11-15T10:45:50.957Z,31.10
2022-11-15T10:48:29.347Z,28.73
2022-11-15T10:50:58.298Z,27.67
2022-11-15T10:53:33.640Z,35.00
2022-11-15T10:56:19.667Z,34.95
2022-11-15T10:58:55.575Z,36.55
2022-11-15T11:01:25.953Z,29.55
2022-11-15T11:04:03.163Z,30.30
2022-11-15T11:06:32.435Z,36.72
2022-11-15T11:09:02.392Z,39.95
2022-11-15T11:11:49.294Z,34.92
2022-11-15T11:14:26.919Z,41.33
2022-11-15T11:16:59.917Z,30.98
2022-11-15T11:19:46.968Z,31.98
2022-11-15T11:22:24.354Z,29.70
2022-11-15T11:25:15.787Z,32.63
2022-11-15T11:27:55.768Z,39.28
2022-11-15T11:30:32.313Z,28.05
2022-11-15T11:33:12.938Z,29.58
2022-11-15T11:35:52.214Z,32.75
2022-11-15T11:38:36.974Z,28.15
2022-11-15T11:41:20.487Z,29.30
2022-11-15T11:44:06.719Z,31.27
2022-11-15T11:46:58.421Z,31.08
2022-11-15T11:49:34.622Z,30.35
2022-11-15T11:52:10.597Z,26.30
2022-11-15T11:54:50.282Z,25.30
2022-11-15T11:57:27.798Z,23.63
2022-11-15T12:00:01.561Z,25.33
2022-11-15T12:02:33.865Z,28.08
2022-11-15T12:05:10.077Z,25.98
2022-11-15T12:07:42.109Z,21.75
2022-11-15T12:10:22.079Z,20.15
2022-11-15T12:12:57.728Z,23.63
2022-11-15T12:15:29.681Z,18.23
2022-11-15T12:17:59.152Z,18.33
2022-11-15T12:20:29.991Z,20.63
2022-11-15T12:23:03.828Z,17.42
2022-11-15T12:25:36.834Z,17.00
2022-11-15T12:28:14.089Z,20.37
2022-11-15T12:30:58.427Z,15.88
2022-11-15T12:33:35.204Z,11.35
2022-11-15T12:36:05.837Z,13.65
2022-11-15T12:38:57.939Z,13.18
2022-11-15T12:41:27.891Z,11.85
2022-11-15T12:43:57.010Z,14.13
2022-11-15T12:47:02.658Z,15.63
2022-11-15T12:49:47.709Z,15.65
2022-11-15T12:52:17.301Z,13.10
2022-11-15T12:55:07.227Z,12.30
2022-11-15T12:57:43.894Z,13.38
2022-11-15T13:00:41.487Z,11.13
2022-11-15T13:03:30.283Z,13.98
2022-11-15T13:06:08.503Z,13.68
2022-11-15T13:08:42.130Z,10.52
2022-11-15T13:13:57.930Z,11.43
2022-11-15T13:16:27.219Z,13.98
2022-11-15T13:18:56.128Z,11.63
2022-11-15T13:21:44.011Z,10.10
2022-11-15T13:24:17.981Z,7.97
2022-11-15T13:26:46.089Z,9.70
2022-11-15T13:29:20.751Z,12.10
2022-11-15T13:31:49.438Z,9.98
2022-11-15T13:34:51.458Z,13.25
2022-11-15T13:37:32.167Z,9.32
2022-11-15T13:40:20.196Z,8.85
2022-11-15T13:42:48.470Z,9.25
2022-11-15T13:45:21.290Z,10.82
2022-11-15T13:47:55.636Z,13.70
2022-11-15T13:50:27.494Z,7.88
2022-11-15T13:53:04.517Z,8.18
2022-11-15T13:55:37.172Z,12.07
2022-11-15T13:58:14.321Z,8.95
2022-11-15T14:00:54.437Z,6.03
2022-11-15T14:03:33.646Z,12.55
2022-11-15T14:06:19.509Z,10.50
2022-11-15T14:09:23.480Z,7.05
2022-11-15T14:11:56.154Z,7.30
2022-11-15T14:14:43.292Z,9.82
2022-11-15T14:17:36.015Z,11.27
2022-11-15T14:20:20.980Z,8.05
2022-11-15T14:22:56.228Z,11.55
2022-11-15T14:25:25.575Z,15.85
2022-11-15T14:28:30.069Z,9.70
2022-11-15T14:31:01.151Z,9.68
2022-11-15T14:33:33.812Z,19.20
2022-11-15T14:36:13.842Z,8.68
2022-11-15T14:38:49.170Z,9.98
2022-11-15T14:41:30.912Z,12.93
2022-11-15T14:44:14.984Z,11.77
2022-11-15T14:46:48.516Z,7.85
2022-11-15T14:49:24.242Z,13.07
2022-11-15T14:52:00.907Z,8.00
2022-11-15T14:54:43.272Z,9.43
2022-11-15T14:57:21.622Z,10.70
2022-11-15T14:59:54.588Z,9.25
2022-11-15T15:02:29.183Z,9.68
2022-11-15T15:05:02.584Z,6.82
2022-11-15T15:07:42.267Z,4.53
2022-11-15T15:10:38.319Z,5.00
2022-11-15T15:13:00.147Z,9.45
2022-11-15T15:15:34.357Z,7.78
2022-11-15T15:18:02.414Z,7.85
2022-11-15T15:20:32.073Z,7.20
2022-11-15T15:23:05.592Z,5.22
2022-11-15T15:28:03.493Z,6.35
2022-11-15T15:30:35.089Z,5.55
2022-11-15T15:33:03.639Z,6.60
2022-11-15T15:35:35.695Z,9.63
2022-11-15T15:38:05.690Z,6.78
2022-11-15T15:40:35.103Z,6.75
2022-11-15T15:43:03.660Z,10.45
2022-11-15T15:45:33.273Z,9.75
2022-11-15T15:48:01.732Z,9.18
2022-11-15T15:50:32.183Z,9.18
2022-11-15T15:53:09.113Z,9.75
2022-11-15T15:56:16.205Z,7.70
2022-11-15T15:58:44.736Z,8.20
2022-11-15T16:01:16.162Z,6.78
2022-11-15T16:03:44.674Z,6.55
2022-11-15T16:06:35.761Z,5.45
2022-11-15T16:09:15.199Z,8.20
2022-11-15T16:11:45.980Z,6.95
2022-11-15T16:14:14.960Z,7.80
2022-11-15T16:16:43.857Z,5.95
2022-11-15T16:19:13.304Z,9.90
2022-11-15T16:21:41.437Z,9.05
2022-11-15T16:24:11.256Z,6.43
2022-11-15T16:26:40.041Z,8.95
2022-11-15T16:29:10.150Z,8.80
2022-11-15T16:31:38.176Z,9.70
2022-11-15T16:34:07.232Z,9.45
2022-11-15T16:36:36.802Z,5.85
2022-11-15T16:39:05.269Z,10.68
2022-11-15T16:41:35.089Z,11.18
2022-11-15T16:44:03.091Z,11.35
2022-11-15T16:46:31.121Z,9.32
2022-11-15T16:48:59.328Z,7.57
2022-11-15T16:51:27.431Z,9.70
2022-11-15T16:53:55.491Z,5.10
2022-11-15T16:56:27.021Z,7.38
2022-11-15T16:58:58.562Z,7.07
2022-11-15T17:01:28.187Z,6.10
2022-11-15T17:03:56.782Z,8.00
2022-11-15T17:06:26.898Z,6.75
2022-11-15T17:08:56.598Z,6.93
2022-11-15T17:11:24.629Z,6.35
2022-11-15T17:13:53.283Z,17.45
2022-11-15T17:16:22.951Z,5.05
2022-11-15T17:18:53.342Z,8.32
2022-11-15T17:21:23.163Z,7.78
2022-11-15T17:23:51.146Z,9.35
2022-11-15T17:26:39.180Z,5.22
2022-11-15T17:29:08.893Z,7.10
2022-11-15T17:31:38.898Z,6.32
2022-11-15T17:34:08.371Z,7.40
2022-11-15T17:36:36.987Z,9.77
2022-11-15T17:39:05.537Z,10.00
2022-11-15T17:41:33.861Z,9.15
2022-11-15T17:44:03.790Z,5.82
2022-11-15T17:46:36.464Z,7.80
2022-11-15T17:49:06.273Z,8.32
2022-11-15T17:51:34.598Z,5.68
2022-11-15T17:54:03.803Z,9.57
2022-11-15T17:56:33.714Z,5.70
2022-11-15T17:59:02.303Z,18.33
2022-11-15T18:01:32.198Z,11.27
2022-11-15T18:04:02.175Z,10.05
2022-11-15T18:06:33.909Z,7.88
2022-11-15T18:09:02.315Z,8.13
2022-11-15T18:11:32.973Z,4.90
2022-11-15T18:14:04.468Z,6.55
2022-11-15T18:16:35.316Z,3.95
2022-11-15T18:19:08.901Z,8.48
2022-11-15T18:21:56.691Z,7.80
2022-11-15T18:24:26.060Z,5.60
2022-11-15T18:26:54.662Z,4.63
2022-11-15T18:29:24.584Z,3.92
2022-11-15T18:31:55.744Z,7.82
2022-11-15T18:34:24.777Z,6.63
2022-11-15T18:36:54.773Z,5.03
2022-11-15T18:39:22.962Z,6.03
2022-11-15T18:41:51.775Z,4.70
2022-11-15T18:44:19.989Z,8.02
2022-11-15T18:46:51.173Z,8.70
2022-11-15T18:49:20.297Z,9.85
2022-11-15T18:51:49.559Z,4.53
2022-11-15T18:54:19.161Z,6.78
2022-11-15T18:56:47.721Z,5.30
2022-11-15T18:59:16.800Z,6.20
2022-11-15T19:01:48.320Z,6.68
2022-11-15T19:04:18.565Z,5.60
2022-11-15T19:06:48.735Z,11.50
2022-11-15T19:09:19.925Z,5.68
2022-11-15T19:11:51.593Z,5.60
2022-11-15T19:14:24.347Z,5.40
2022-11-15T19:16:54.671Z,5.18
2022-11-15T19:19:25.226Z,9.90
2022-11-15T19:21:54.119Z,3.83
2022-11-15T19:24:23.428Z,6.93
2022-11-15T19:26:51.590Z,4.47
2022-11-15T19:29:19.613Z,8.77
2022-11-15T19:31:48.853Z,9.98
2022-11-15T19:34:17.931Z,3.33
2022-11-15T19:36:46.492Z,4.63
2022-11-15T19:39:18.040Z,7.82
2022-11-15T19:41:47.850Z,3.75
2022-11-15T19:44:16.593Z,6.18
2022-11-15T19:46:45.382Z,6.18
2022-11-15T19:49:14.633Z,2.78
2022-11-15T19:51:45.601Z,5.60
2022-11-15T19:54:14.036Z,9.15
2022-11-15T19:56:42.163Z,4.97
2022-11-15T19:59:13.545Z,9.35
2022-11-15T20:01:42.571Z,5.05
2022-11-15T20:04:10.912Z,4.55
2022-11-15T20:06:41.295Z,7.65
2022-11-15T20:09:12.401Z,7.55
2022-11-15T20:11:40.323Z,8.02
2022-11-15T20:14:09.738Z,6.25
2022-11-15T20:16:39.331Z,8.15
2022-11-15T20:19:08.664Z,10.90
2022-11-15T20:21:37.051Z,5.70
2022-11-15T20:24:05.744Z,5.88
2022-11-15T20:26:35.617Z,7.65
2022-11-15T20:29:04.023Z,7.45
2022-11-15T20:31:33.078Z,7.35
2022-11-15T20:34:02.529Z,4.97
2022-11-15T20:36:30.468Z,4.55
2022-11-15T20:38:59.735Z,6.25
2022-11-15T20:41:28.554Z,6.45
2022-11-15T20:43:56.723Z,8.13
2022-11-15T20:46:24.676Z,5.80
2022-11-15T20:48:52.646Z,5.25
2022-11-15T20:51:22.227Z,7.63
2022-11-15T20:53:50.752Z,8.13
2022-11-15T20:56:21.156Z,5.78
2022-11-15T20:58:50.805Z,7.00
2022-11-15T21:01:23.741Z,4.35
2022-11-15T21:03:53.686Z,14.68
2022-11-15T21:06:24.460Z,6.60
2022-11-15T21:09:11.441Z,7.55
2022-11-15T21:11:57.799Z,5.47
2022-11-15T21:14:26.251Z,6.75
2022-11-15T21:16:54.318Z,12.48
2022-11-15T21:19:28.779Z,7.78
2022-11-15T21:22:02.576Z,10.02
2022-11-15T21:24:31.222Z,9.55
2022-11-15T21:26:59.824Z,8.98
2022-11-15T21:29:28.604Z,7.30
2022-11-15T21:31:56.691Z,8.15
2022-11-15T21:34:24.978Z,8.20
2022-11-15T21:36:53.107Z,10.63
2022-11-15T21:39:22.421Z,7.20
2022-11-15T21:41:50.293Z,10.23
2022-11-15T21:44:18.392Z,12.25
2022-11-15T21:46:46.371Z,10.30
2022-11-15T21:49:14.351Z,8.73
2022-11-15T21:51:42.312Z,9.63
2022-11-15T21:54:10.437Z,7.28
2022-11-15T21:56:39.891Z,6.00
2022-11-15T21:59:07.840Z,12.68
2022-11-15T22:01:53.732Z,8.45
2022-11-15T22:04:24.015Z,9.70
2022-11-15T22:06:52.354Z,7.55
2022-11-15T22:09:20.586Z,12.75
2022-11-15T22:11:50.137Z,7.38
2022-11-15T22:14:18.468Z,10.52
2022-11-15T22:16:46.774Z,7.75
2022-11-15T22:19:15.224Z,8.98
2022-11-15T22:21:43.232Z,9.02
2022-11-15T22:24:11.607Z,6.45
2022-11-15T22:26:39.633Z,8.93
2022-11-15T22:29:08.938Z,8.10
2022-11-15T22:31:36.943Z,8.45
2022-11-15T22:34:05.075Z,8.25
2022-11-15T22:36:47.008Z,7.07
2022-11-15T22:39:21.096Z,8.93
2022-11-15T22:41:49.088Z,7.72
2022-11-15T22:44:18.394Z,9.63
2022-11-15T22:46:46.440Z,6.97
2022-11-15T22:49:14.948Z,8.65
2022-11-15T22:51:42.906Z,10.43
2022-11-15T22:54:10.835Z,9.80
2022-11-15T22:56:38.930Z,7.38
2022-11-15T22:59:07.199Z,7.35
2022-11-15T23:01:36.629Z,8.00
2022-11-15T23:04:04.925Z,8.07
2022-11-15T23:06:33.144Z,6.97
2022-11-15T23:09:01.115Z,8.20
2022-11-15T23:11:46.460Z,8.25
2022-11-15T23:14:14.844Z,7.38
2022-11-15T23:16:44.813Z,7.25
2022-11-15T23:19:13.998Z,7.95
2022-11-15T23:22:02.175Z,9.30
2022-11-15T23:24:31.509Z,9.10
2022-11-15T23:27:01.590Z,7.00
2022-11-15T23:29:30.841Z,10.98
2022-11-15T23:32:17.798Z,8.43
2022-11-15T23:34:47.408Z,10.95
2022-11-15T23:37:16.611Z,10.30
2022-11-15T23:39:45.023Z,7.60
2022-11-15T23:42:19.713Z,6.82
2022-11-15T23:44:50.007Z,7.80
2022-11-15T23:47:19.573Z,8.35
2022-11-15T23:49:47.691Z,9.52
2022-11-15T23:52:16.879Z,9.50
2022-11-15T23:54:45.404Z,8.50
2022-11-15T23:57:13.983Z,7.90
2022-11-15T23:59:44.186Z,8.02
